Pagina principale
METAR-TAF:

METAR-TAF

Aeroporti :

Tabarka, Tunisia

latitudine: 36-57N, longitudine: 008-45E, altezza: 20 m

Osservazione

Il bollettino è stato emesso 1 ora e 7 minuti fa, alle 11:00 UTC
Vento 16 kt da ovest
Temperature 18°C
Umidità 59%
Pressione 1019 hPa
Visibilità: 8000 m
Nuvoloso ad un'altezza di 1600 ft
Nubi sparse ad un'altezza di 2300 ft

METAR: DTKA 191100Z 27016KT 8000 BKN016 SCT023 18/10 Q1019 NOSIG

Ora: 13:07 (12:07 UTC)

Previsione

Il bollettino è stato emesso 2 ore e 55 minuti fa, alle 09:12 UTC
Previsione valida dal 19 alle 10 UTC al 19 alle 19 UTC
Vento 17 kt da ovest
Visibilità 10 km o più
Nubi sparse ad un'altezza di 1600 ft
Nubi sparse ad un'altezza di 3000 ft
Probabilità 40%
dal 19 alle 10 UTC al 19 alle 13 UTC
Visibilità: 3000 m
Nuvoloso ad un'altezza di 1500 ft
pioggia debole

TAF: DTKA 190912Z 1910/1919 27017KT 9999 SCT016 SCT030 PROB40 1910/1913 3000 -RA BKN015

Osservazioni e previsioni meteorologiche di più di 4000 aeroporti (messaggi METAR e TAF).

Le stazioni disponibili sono rappresentate dai dischi gialli e rossi sulla carta.

Puntare il mouse per vedere il nome della stazione.

Clicca sopra per visualizzare le osservazioni e previsioni meteorologiche.

Per cambiare la mappa : fare clic sui pulsanti verdi con una croce nera per ingrandire, il pulsante verde con un trattino per diminuire, o sulla freccia verde per le mappe adiacenti.


METAR-TAF: